Etusivu
METAR-TAF:

METAR-TAF

Lentoasemat :

Grayling Army Airfield

Grayling, Michigan, Yhdysvallat

Leveyspiiri: 44-40-49N, Pituuspiiri: 084-43-44W, korkeus merenpinnasta: 353 m

Tämänhetkinen sää

Tämä raportti tehtiin 21 minuuttia sitten, kello 04.48 UTC
Tuuli 6 kn lännestä/luoteesta
Lämpötila -7°C
Kosteus 86%
Ilmanpaine 1012 hPa
Näkyvyys: 4.8 km
Muutamia pilviä 1100 ft:n korkeudessa
Pilvistä 3000 ft:n korkeudessa
heikkoa lumisadetta, utua

METAR: KGOV 290448Z AUTO 30006KT 3SM -SN BR FEW011 OVC030 M07/M09 A2988 RMK AO2 SLP144 $

Aika: 00:09 (05:09 UTC)


TAF: puuttuu

Säähavainnot ja -ennusteet yli 4000 lentoasemalta (METAR- ja TAF-raportit).

Käytössä olevat sääasemat on merkitty karttaan keltaisilla ja punaisilla pisteillä.

Aseta hiiri pisteen päälle nähdäksesi sääaseman nimen.

Klikkaa sitten nähdäksesi säähavainnot ja -ennusteet.

Kartan vaihtaminen: klikkaa mustalla rastilla varustettuja vihreitä pisteitä, niin voit zoomata sisään; viivalla varustettua vihreää pistettä, niin voit zoomata ulos tai vihreitä nuolia, niin pääset viereisille kartoille.


METAR-TAF: